Aeroporto :







RITROVATECI SU...

 
LOGIN :

Iscrizione | Disclaimer

   EN    FR    IT 

 









Sommario :    VFR   VFR Marginale   IFR   IFR Intensivo   IFR Molto Intensivo
Visibilità : 
Base nubi : 
>= 8 km
>= 3000ft
5 / 8 km
1000 / 3000 ft
1500m / 5 km
500 / 1000 ft
800 / 1500m
200 / 500 ft
< 800m
< 200 ft
Simboli :   Temporali  Nebbia  Neve Forte  Precipitazioni Forti  Vento > 20 kt






- Altitudine del aeroporto : 74 ft
- Codice IATA : PMV


SVMG - Del Caribe Int. Gen Santiago M

ULTIMO METAR :
  • 251202Z AUTO 09010KT NCD 25/24 Q1013

METARs OBSOLETI :
  • 251200Z /////KT 9999 FEW010 XX/XX Q1013 NOSIG
  • 251102Z AUTO 09011KT NCD 25/24 Q1013
  • 251002Z AUTO 10011KT NCD 25/23 Q1012

TAF TAF SVMG
Valido dal 24 a 18 ore il 25 a 18 ore UTC


242200Z 2418/2518 08011KT 9999 FEW010 TX32/18Z TN24/08Z
TEMPO 2404/2404 09012KT SCT010 SCT080



MetMap, La meteo Aeronautica in un colpo d'occhio ! - Copyright ORBIFLY Dicembre 2007 - Disclaimer

ORBIFLY MET'MAP TEAM :

Programmazione e sviluppo : Alexandra Zaïnal
Concezione : Baudouin d'Aumeries
Aiuto per la programmazione : Marc-Olivier Méhu
Supporto tecnico e logistico : Manuel Goepfert
Aiuto per la traduzione : Arnaldo La Scala

Contatto : metmap@orbifly.com




FONTI E CREDITI :

   NOAA